sensor_id;sensor_type;location;lat;lon;timestamp;P1;durP1;ratioP1;P2;durP2;ratioP2
46222;SDS011;31943;51.410;7.564;2022-12-18T00:00:28;10.13;;;6.32;;
46222;SDS011;31943;51.410;7.564;2022-12-18T00:02:55;13.00;;;8.80;;
46222;SDS011;31943;51.410;7.564;2022-12-18T00:05:20;9.73;;;5.38;;
46222;SDS011;31943;51.410;7.564;2022-12-18T00:07:48;11.25;;;6.57;;
46222;SDS011;31943;51.410;7.564;2022-12-18T00:10:13;17.50;;;8.82;;
46222;SDS011;31943;51.410;7.564;2022-12-18T00:12:38;14.77;;;9.55;;
46222;SDS011;31943;51.410;7.564;2022-12-18T00:15:04;18.60;;;10.40;;
46222;SDS011;31943;51.410;7.564;2022-12-18T00:17:30;13.73;;;8.55;;
46222;SDS011;31943;51.410;7.564;2022-12-18T00:19:56;12.68;;;7.22;;
46222;SDS011;31943;51.410;7.564;2022-12-18T00:22:21;9.38;;;5.45;;
46222;SDS011;31943;51.410;7.564;2022-12-18T00:24:49;10.45;;;6.65;;
46222;SDS011;31943;51.410;7.564;2022-12-18T00:27:14;12.25;;;6.55;;
46222;SDS011;31943;51.410;7.564;2022-12-18T00:29:40;17.10;;;8.77;;
46222;SDS011;31943;51.410;7.564;2022-12-18T00:32:05;16.27;;;9.80;;
46222;SDS011;31943;51.410;7.564;2022-12-18T00:34:31;14.27;;;8.60;;
46222;SDS011;31943;51.410;7.564;2022-12-18T00:36:56;13.77;;;7.45;;
46222;SDS011;31943;51.410;7.564;2022-12-18T00:39:22;13.25;;;7.30;;
46222;SDS011;31943;51.410;7.564;2022-12-18T00:41:49;10.77;;;6.43;;
46222;SDS011;31943;51.410;7.564;2022-12-18T00:44:15;12.77;;;7.82;;
46222;SDS011;31943;51.410;7.564;2022-12-18T00:46:43;11.40;;;7.05;;
46222;SDS011;31943;51.410;7.564;2022-12-18T00:49:09;14.07;;;7.00;;
46222;SDS011;31943;51.410;7.564;2022-12-18T00:51:35;11.88;;;7.00;;
46222;SDS011;31943;51.410;7.564;2022-12-18T00:54:00;11.70;;;7.15;;
46222;SDS011;31943;51.410;7.564;2022-12-18T00:56:26;11.73;;;6.88;;
46222;SDS011;31943;51.410;7.564;2022-12-18T00:58:53;9.60;;;6.05;;
46222;SDS011;31943;51.410;7.564;2022-12-18T01:01:18;9.80;;;5.68;;
46222;SDS011;31943;51.410;7.564;2022-12-18T01:03:44;9.25;;;5.18;;
46222;SDS011;31943;51.410;7.564;2022-12-18T01:06:11;8.98;;;4.93;;
46222;SDS011;31943;51.410;7.564;2022-12-18T01:08:38;11.38;;;4.65;;
46222;SDS011;31943;51.410;7.564;2022-12-18T01:11:06;8.60;;;5.43;;
46222;SDS011;31943;51.410;7.564;2022-12-18T01:13:33;8.65;;;5.20;;
46222;SDS011;31943;51.410;7.564;2022-12-18T01:16:00;10.27;;;5.18;;
46222;SDS011;31943;51.410;7.564;2022-12-18T01:18:26;8.60;;;4.68;;
46222;SDS011;31943;51.410;7.564;2022-12-18T01:20:52;7.53;;;4.30;;
46222;SDS011;31943;51.410;7.564;2022-12-18T01:23:19;8.40;;;4.43;;
46222;SDS011;31943;51.410;7.564;2022-12-18T01:25:45;5.93;;;3.90;;
46222;SDS011;31943;51.410;7.564;2022-12-18T01:28:11;7.00;;;4.22;;
46222;SDS011;31943;51.410;7.564;2022-12-18T01:30:36;6.60;;;4.00;;
46222;SDS011;31943;51.410;7.564;2022-12-18T01:33:05;7.83;;;4.67;;
46222;SDS011;31943;51.410;7.564;2022-12-18T01:35:30;6.57;;;3.72;;
46222;SDS011;31943;51.410;7.564;2022-12-18T01:37:56;6.45;;;4.05;;
46222;SDS011;31943;51.410;7.564;2022-12-18T01:40:22;6.55;;;4.35;;
46222;SDS011;31943;51.410;7.564;2022-12-18T01:42:49;9.13;;;4.50;;
46222;SDS011;31943;51.410;7.564;2022-12-18T01:45:23;7.47;;;4.20;;
46222;SDS011;31943;51.410;7.564;2022-12-18T01:47:51;7.80;;;4.03;;
46222;SDS011;31943;51.410;7.564;2022-12-18T01:50:21;6.30;;;3.90;;
46222;SDS011;31943;51.410;7.564;2022-12-18T01:52:50;5.72;;;3.80;;
46222;SDS011;31943;51.410;7.564;2022-12-18T01:55:18;9.00;;;4.15;;
46222;SDS011;31943;51.410;7.564;2022-12-18T01:57:45;9.50;;;3.92;;
46222;SDS011;31943;51.410;7.564;2022-12-18T02:00:12;5.60;;;4.20;;
46222;SDS011;31943;51.410;7.564;2022-12-18T02:02:40;8.52;;;4.38;;
46222;SDS011;31943;51.410;7.564;2022-12-18T02:05:06;6.97;;;4.63;;
46222;SDS011;31943;51.410;7.564;2022-12-18T02:07:37;6.43;;;3.72;;
46222;SDS011;31943;51.410;7.564;2022-12-18T02:10:12;7.82;;;4.20;;
46222;SDS011;31943;51.410;7.564;2022-12-18T02:12:45;8.07;;;3.83;;
46222;SDS011;31943;51.410;7.564;2022-12-18T02:15:19;7.13;;;3.92;;
46222;SDS011;31943;51.410;7.564;2022-12-18T02:17:54;7.32;;;4.38;;
46222;SDS011;31943;51.410;7.564;2022-12-18T02:20:25;9.10;;;5.57;;
46222;SDS011;31943;51.410;7.564;2022-12-18T02:28:43;7.88;;;4.68;;
46222;SDS011;31943;51.410;7.564;2022-12-18T02:31:14;8.05;;;4.28;;
46222;SDS011;31943;51.410;7.564;2022-12-18T02:33:44;8.10;;;4.57;;
46222;SDS011;31943;51.410;7.564;2022-12-18T02:36:11;7.45;;;4.40;;
46222;SDS011;31943;51.410;7.564;2022-12-18T02:38:39;6.05;;;3.83;;
46222;SDS011;31943;51.410;7.564;2022-12-18T02:41:07;5.95;;;3.50;;
46222;SDS011;31943;51.410;7.564;2022-12-18T02:43:34;5.78;;;4.13;;
46222;SDS011;31943;51.410;7.564;2022-12-18T02:46:00;5.22;;;3.50;;
46222;SDS011;31943;51.410;7.564;2022-12-18T02:48:50;6.90;;;4.53;;
46222;SDS011;31943;51.410;7.564;2022-12-18T02:51:21;6.90;;;3.83;;
46222;SDS011;31943;51.410;7.564;2022-12-18T02:53:53;7.68;;;4.00;;
46222;SDS011;31943;51.410;7.564;2022-12-18T02:56:26;6.63;;;4.60;;
46222;SDS011;31943;51.410;7.564;2022-12-18T02:59:02;7.40;;;3.55;;
46222;SDS011;31943;51.410;7.564;2022-12-18T03:01:33;5.07;;;3.17;;
46222;SDS011;31943;51.410;7.564;2022-12-18T03:04:04;5.82;;;3.33;;
46222;SDS011;31943;51.410;7.564;2022-12-18T03:06:35;6.28;;;3.63;;
46222;SDS011;31943;51.410;7.564;2022-12-18T03:09:06;5.57;;;3.75;;
46222;SDS011;31943;51.410;7.564;2022-12-18T03:11:34;8.20;;;4.00;;
46222;SDS011;31943;51.410;7.564;2022-12-18T03:14:06;5.68;;;3.75;;
46222;SDS011;31943;51.410;7.564;2022-12-18T03:16:33;5.80;;;3.65;;
46222;SDS011;31943;51.410;7.564;2022-12-18T03:19:01;7.70;;;3.88;;
46222;SDS011;31943;51.410;7.564;2022-12-18T03:21:32;6.47;;;3.25;;
46222;SDS011;31943;51.410;7.564;2022-12-18T03:24:02;6.60;;;3.78;;
46222;SDS011;31943;51.410;7.564;2022-12-18T03:26:32;5.70;;;3.13;;
46222;SDS011;31943;51.410;7.564;2022-12-18T03:29:02;4.70;;;3.00;;
46222;SDS011;31943;51.410;7.564;2022-12-18T03:31:34;3.92;;;2.67;;
46222;SDS011;31943;51.410;7.564;2022-12-18T03:34:05;6.47;;;3.45;;
46222;SDS011;31943;51.410;7.564;2022-12-18T03:36:37;6.75;;;3.03;;
46222;SDS011;31943;51.410;7.564;2022-12-18T03:39:03;6.43;;;3.25;;
46222;SDS011;31943;51.410;7.564;2022-12-18T03:41:30;5.38;;;2.75;;
46222;SDS011;31943;51.410;7.564;2022-12-18T03:43:59;5.28;;;2.78;;
46222;SDS011;31943;51.410;7.564;2022-12-18T03:46:33;4.93;;;2.85;;
46222;SDS011;31943;51.410;7.564;2022-12-18T03:49:11;4.80;;;2.78;;
46222;SDS011;31943;51.410;7.564;2022-12-18T03:51:45;4.18;;;2.63;;
46222;SDS011;31943;51.410;7.564;2022-12-18T03:54:17;3.90;;;2.47;;
46222;SDS011;31943;51.410;7.564;2022-12-18T03:56:45;4.40;;;2.70;;
46222;SDS011;31943;51.410;7.564;2022-12-18T03:59:15;6.55;;;3.65;;
46222;SDS011;31943;51.410;7.564;2022-12-18T04:01:45;5.13;;;3.20;;
46222;SDS011;31943;51.410;7.564;2022-12-18T04:04:12;14.15;;;5.85;;
46222;SDS011;31943;51.410;7.564;2022-12-18T04:06:39;10.45;;;6.75;;
46222;SDS011;31943;51.410;7.564;2022-12-18T04:09:06;7.30;;;4.60;;
46222;SDS011;31943;51.410;7.564;2022-12-18T04:11:33;6.40;;;4.43;;
46222;SDS011;31943;51.410;7.564;2022-12-18T04:13:58;8.32;;;4.95;;
46222;SDS011;31943;51.410;7.564;2022-12-18T04:16:24;8.73;;;4.78;;
46222;SDS011;31943;51.410;7.564;2022-12-18T04:18:52;7.35;;;4.18;;
46222;SDS011;31943;51.410;7.564;2022-12-18T04:21:18;8.40;;;4.93;;
46222;SDS011;31943;51.410;7.564;2022-12-18T04:23:44;9.20;;;4.43;;
46222;SDS011;31943;51.410;7.564;2022-12-18T04:26:10;9.15;;;4.57;;
46222;SDS011;31943;51.410;7.564;2022-12-18T04:28:36;8.48;;;5.18;;
46222;SDS011;31943;51.410;7.564;2022-12-18T04:31:01;8.25;;;4.78;;
46222;SDS011;31943;51.410;7.564;2022-12-18T04:33:27;6.45;;;4.30;;
46222;SDS011;31943;51.410;7.564;2022-12-18T04:35:54;7.97;;;4.43;;
46222;SDS011;31943;51.410;7.564;2022-12-18T04:38:20;5.93;;;3.72;;
46222;SDS011;31943;51.410;7.564;2022-12-18T04:40:46;7.22;;;4.30;;
46222;SDS011;31943;51.410;7.564;2022-12-18T04:43:11;7.13;;;4.50;;
46222;SDS011;31943;51.410;7.564;2022-12-18T04:45:37;8.00;;;4.10;;
46222;SDS011;31943;51.410;7.564;2022-12-18T04:48:03;8.50;;;4.75;;
46222;SDS011;31943;51.410;7.564;2022-12-18T04:50:29;7.22;;;4.93;;
46222;SDS011;31943;51.410;7.564;2022-12-18T04:52:57;9.05;;;5.05;;
46222;SDS011;31943;51.410;7.564;2022-12-18T04:55:22;9.23;;;4.47;;
46222;SDS011;31943;51.410;7.564;2022-12-18T04:57:49;9.07;;;5.28;;
46222;SDS011;31943;51.410;7.564;2022-12-18T05:00:15;8.27;;;4.82;;
46222;SDS011;31943;51.410;7.564;2022-12-18T05:02:41;10.63;;;7.50;;
46222;SDS011;31943;51.410;7.564;2022-12-18T05:05:07;13.30;;;6.63;;
46222;SDS011;31943;51.410;7.564;2022-12-18T05:07:33;10.00;;;5.90;;
46222;SDS011;31943;51.410;7.564;2022-12-18T05:10:00;11.25;;;7.18;;
46222;SDS011;31943;51.410;7.564;2022-12-18T05:12:25;12.52;;;6.78;;
46222;SDS011;31943;51.410;7.564;2022-12-18T05:14:51;11.70;;;7.13;;
46222;SDS011;31943;51.410;7.564;2022-12-18T05:17:16;8.25;;;5.85;;
46222;SDS011;31943;51.410;7.564;2022-12-18T05:19:42;10.20;;;5.70;;
46222;SDS011;31943;51.410;7.564;2022-12-18T05:22:08;7.47;;;4.72;;
46222;SDS011;31943;51.410;7.564;2022-12-18T05:24:33;8.93;;;5.57;;
46222;SDS011;31943;51.410;7.564;2022-12-18T05:27:00;8.77;;;5.63;;
46222;SDS011;31943;51.410;7.564;2022-12-18T05:29:26;10.80;;;6.32;;
46222;SDS011;31943;51.410;7.564;2022-12-18T05:31:51;9.65;;;6.40;;
46222;SDS011;31943;51.410;7.564;2022-12-18T05:34:18;11.77;;;6.47;;
46222;SDS011;31943;51.410;7.564;2022-12-18T05:36:44;11.93;;;7.15;;
46222;SDS011;31943;51.410;7.564;2022-12-18T05:39:09;14.30;;;7.88;;
46222;SDS011;31943;51.410;7.564;2022-12-18T05:41:35;12.52;;;8.07;;
46222;SDS011;31943;51.410;7.564;2022-12-18T05:44:02;14.50;;;8.77;;
46222;SDS011;31943;51.410;7.564;2022-12-18T05:46:27;14.82;;;8.85;;
46222;SDS011;31943;51.410;7.564;2022-12-18T05:48:53;18.25;;;10.40;;
46222;SDS011;31943;51.410;7.564;2022-12-18T05:51:19;17.58;;;11.07;;
46222;SDS011;31943;51.410;7.564;2022-12-18T05:53:46;15.90;;;10.40;;
46222;SDS011;31943;51.410;7.564;2022-12-18T05:56:12;16.58;;;11.07;;
46222;SDS011;31943;51.410;7.564;2022-12-18T05:58:39;15.85;;;9.48;;
46222;SDS011;31943;51.410;7.564;2022-12-18T06:01:08;18.27;;;10.20;;
46222;SDS011;31943;51.410;7.564;2022-12-18T06:03:36;16.10;;;8.45;;
46222;SDS011;31943;51.410;7.564;2022-12-18T06:06:02;17.45;;;9.23;;
46222;SDS011;31943;51.410;7.564;2022-12-18T06:08:27;14.43;;;8.75;;
46222;SDS011;31943;51.410;7.564;2022-12-18T06:10:53;13.80;;;8.98;;
46222;SDS011;31943;51.410;7.564;2022-12-18T06:13:19;16.33;;;9.73;;
46222;SDS011;31943;51.410;7.564;2022-12-18T06:15:44;18.08;;;9.45;;
46222;SDS011;31943;51.410;7.564;2022-12-18T06:18:12;14.68;;;9.13;;
46222;SDS011;31943;51.410;7.564;2022-12-18T06:20:38;15.07;;;9.23;;
46222;SDS011;31943;51.410;7.564;2022-12-18T06:23:03;16.05;;;9.50;;
46222;SDS011;31943;51.410;7.564;2022-12-18T06:25:29;16.45;;;9.07;;
46222;SDS011;31943;51.410;7.564;2022-12-18T06:27:55;16.83;;;8.70;;
46222;SDS011;31943;51.410;7.564;2022-12-18T06:30:20;16.65;;;9.27;;
46222;SDS011;31943;51.410;7.564;2022-12-18T06:32:47;13.88;;;9.23;;
46222;SDS011;31943;51.410;7.564;2022-12-18T06:35:15;16.35;;;9.30;;
46222;SDS011;31943;51.410;7.564;2022-12-18T06:37:40;17.38;;;10.45;;
46222;SDS011;31943;51.410;7.564;2022-12-18T06:40:06;12.88;;;9.80;;
46222;SDS011;31943;51.410;7.564;2022-12-18T06:42:32;16.50;;;10.25;;
46222;SDS011;31943;51.410;7.564;2022-12-18T06:44:58;14.50;;;9.65;;
46222;SDS011;31943;51.410;7.564;2022-12-18T06:47:23;15.57;;;10.05;;
46222;SDS011;31943;51.410;7.564;2022-12-18T06:49:49;15.77;;;9.13;;
46222;SDS011;31943;51.410;7.564;2022-12-18T06:52:16;17.63;;;10.05;;
46222;SDS011;31943;51.410;7.564;2022-12-18T06:54:42;16.40;;;10.00;;
46222;SDS011;31943;51.410;7.564;2022-12-18T06:57:07;17.88;;;10.30;;
46222;SDS011;31943;51.410;7.564;2022-12-18T06:59:33;17.90;;;10.93;;
46222;SDS011;31943;51.410;7.564;2022-12-18T07:01:58;16.42;;;10.98;;
46222;SDS011;31943;51.410;7.564;2022-12-18T07:04:27;16.20;;;9.45;;
46222;SDS011;31943;51.410;7.564;2022-12-18T07:06:53;15.50;;;9.48;;
46222;SDS011;31943;51.410;7.564;2022-12-18T07:09:20;14.63;;;9.95;;
46222;SDS011;31943;51.410;7.564;2022-12-18T07:11:46;16.88;;;11.07;;
46222;SDS011;31943;51.410;7.564;2022-12-18T07:14:11;15.75;;;9.13;;
46222;SDS011;31943;51.410;7.564;2022-12-18T07:16:37;15.98;;;9.48;;
46222;SDS011;31943;51.410;7.564;2022-12-18T07:19:02;15.63;;;9.02;;
46222;SDS011;31943;51.410;7.564;2022-12-18T07:21:28;20.58;;;10.45;;
46222;SDS011;31943;51.410;7.564;2022-12-18T07:23:53;24.15;;;14.45;;
46222;SDS011;31943;51.410;7.564;2022-12-18T07:26:21;19.08;;;12.95;;
46222;SDS011;31943;51.410;7.564;2022-12-18T07:28:47;24.15;;;14.02;;
46222;SDS011;31943;51.410;7.564;2022-12-18T07:31:13;19.23;;;10.65;;
46222;SDS011;31943;51.410;7.564;2022-12-18T07:33:41;17.85;;;10.13;;
46222;SDS011;31943;51.410;7.564;2022-12-18T07:36:08;14.82;;;9.55;;
46222;SDS011;31943;51.410;7.564;2022-12-18T07:38:35;9.73;;;6.70;;
46222;SDS011;31943;51.410;7.564;2022-12-18T07:41:01;8.90;;;5.80;;
46222;SDS011;31943;51.410;7.564;2022-12-18T07:43:28;7.63;;;4.15;;
46222;SDS011;31943;51.410;7.564;2022-12-18T07:45:54;10.63;;;4.60;;
46222;SDS011;31943;51.410;7.564;2022-12-18T07:48:19;10.05;;;5.40;;
46222;SDS011;31943;51.410;7.564;2022-12-18T07:50:45;7.55;;;3.65;;
46222;SDS011;31943;51.410;7.564;2022-12-18T07:53:11;8.02;;;3.85;;
46222;SDS011;31943;51.410;7.564;2022-12-18T07:55:36;9.82;;;4.63;;
46222;SDS011;31943;51.410;7.564;2022-12-18T07:58:02;7.93;;;3.95;;
46222;SDS011;31943;51.410;7.564;2022-12-18T08:00:29;6.55;;;3.90;;
46222;SDS011;31943;51.410;7.564;2022-12-18T08:02:55;9.27;;;5.10;;
46222;SDS011;31943;51.410;7.564;2022-12-18T08:05:21;9.82;;;4.65;;
46222;SDS011;31943;51.410;7.564;2022-12-18T08:07:47;8.23;;;3.78;;
46222;SDS011;31943;51.410;7.564;2022-12-18T08:10:14;9.32;;;4.50;;
46222;SDS011;31943;51.410;7.564;2022-12-18T08:12:39;8.15;;;4.43;;
46222;SDS011;31943;51.410;7.564;2022-12-18T08:15:05;9.88;;;4.35;;
46222;SDS011;31943;51.410;7.564;2022-12-18T08:17:33;6.55;;;3.80;;
46222;SDS011;31943;51.410;7.564;2022-12-18T08:19:59;7.90;;;4.43;;
46222;SDS011;31943;51.410;7.564;2022-12-18T08:22:24;7.70;;;4.43;;
46222;SDS011;31943;51.410;7.564;2022-12-18T08:24:50;7.00;;;4.18;;
46222;SDS011;31943;51.410;7.564;2022-12-18T08:27:16;7.63;;;3.72;;
46222;SDS011;31943;51.410;7.564;2022-12-18T08:29:42;5.00;;;3.15;;
46222;SDS011;31943;51.410;7.564;2022-12-18T08:32:07;6.43;;;3.45;;
46222;SDS011;31943;51.410;7.564;2022-12-18T08:34:35;5.10;;;3.38;;
46222;SDS011;31943;51.410;7.564;2022-12-18T08:37:00;9.85;;;4.63;;
46222;SDS011;31943;51.410;7.564;2022-12-18T08:39:26;11.07;;;6.45;;
46222;SDS011;31943;51.410;7.564;2022-12-18T08:41:51;7.78;;;4.72;;
46222;SDS011;31943;51.410;7.564;2022-12-18T08:44:17;8.38;;;5.18;;
46222;SDS011;31943;51.410;7.564;2022-12-18T08:46:42;9.43;;;6.07;;
46222;SDS011;31943;51.410;7.564;2022-12-18T08:49:09;10.48;;;6.60;;
46222;SDS011;31943;51.410;7.564;2022-12-18T08:51:37;5.35;;;3.70;;
46222;SDS011;31943;51.410;7.564;2022-12-18T08:54:04;7.35;;;4.07;;
46222;SDS011;31943;51.410;7.564;2022-12-18T08:56:30;9.38;;;5.35;;
46222;SDS011;31943;51.410;7.564;2022-12-18T08:58:55;7.68;;;5.15;;
46222;SDS011;31943;51.410;7.564;2022-12-18T09:01:21;6.65;;;4.85;;
46222;SDS011;31943;51.410;7.564;2022-12-18T09:03:47;5.68;;;3.30;;
46222;SDS011;31943;51.410;7.564;2022-12-18T09:06:13;6.75;;;3.83;;
46222;SDS011;31943;51.410;7.564;2022-12-18T09:08:41;5.78;;;2.80;;
46222;SDS011;31943;51.410;7.564;2022-12-18T09:11:10;4.43;;;2.72;;
46222;SDS011;31943;51.410;7.564;2022-12-18T09:13:38;5.07;;;3.03;;
46222;SDS011;31943;51.410;7.564;2022-12-18T09:16:04;4.30;;;2.78;;
46222;SDS011;31943;51.410;7.564;2022-12-18T09:18:30;4.15;;;2.78;;
46222;SDS011;31943;51.410;7.564;2022-12-18T09:20:55;5.32;;;3.05;;
46222;SDS011;31943;51.410;7.564;2022-12-18T09:23:21;4.50;;;2.60;;
46222;SDS011;31943;51.410;7.564;2022-12-18T09:25:48;5.95;;;3.03;;
46222;SDS011;31943;51.410;7.564;2022-12-18T09:28:14;4.70;;;2.92;;
46222;SDS011;31943;51.410;7.564;2022-12-18T09:30:42;5.30;;;2.95;;
46222;SDS011;31943;51.410;7.564;2022-12-18T09:33:09;4.05;;;2.50;;
46222;SDS011;31943;51.410;7.564;2022-12-18T09:35:43;5.03;;;2.75;;
46222;SDS011;31943;51.410;7.564;2022-12-18T09:38:11;4.97;;;2.47;;
46222;SDS011;31943;51.410;7.564;2022-12-18T09:40:39;5.05;;;3.10;;
46222;SDS011;31943;51.410;7.564;2022-12-18T09:43:13;5.13;;;2.88;;
46222;SDS011;31943;51.410;7.564;2022-12-18T09:45:43;5.15;;;2.42;;
46222;SDS011;31943;51.410;7.564;2022-12-18T09:48:14;4.65;;;2.97;;
46222;SDS011;31943;51.410;7.564;2022-12-18T09:50:43;4.32;;;2.88;;
46222;SDS011;31943;51.410;7.564;2022-12-18T09:53:11;3.05;;;2.22;;
46222;SDS011;31943;51.410;7.564;2022-12-18T09:55:41;3.13;;;2.07;;
46222;SDS011;31943;51.410;7.564;2022-12-18T09:58:16;5.72;;;2.75;;
46222;SDS011;31943;51.410;7.564;2022-12-18T10:00:51;3.28;;;2.50;;
46222;SDS011;31943;51.410;7.564;2022-12-18T10:03:17;3.88;;;2.10;;
46222;SDS011;31943;51.410;7.564;2022-12-18T10:05:45;3.88;;;2.28;;
46222;SDS011;31943;51.410;7.564;2022-12-18T10:08:22;4.35;;;2.45;;
46222;SDS011;31943;51.410;7.564;2022-12-18T10:10:56;4.57;;;2.40;;
46222;SDS011;31943;51.410;7.564;2022-12-18T10:13:28;3.85;;;2.50;;
46222;SDS011;31943;51.410;7.564;2022-12-18T10:16:01;3.28;;;1.98;;
46222;SDS011;31943;51.410;7.564;2022-12-18T10:18:40;3.50;;;1.95;;
46222;SDS011;31943;51.410;7.564;2022-12-18T10:21:21;4.55;;;2.00;;
46222;SDS011;31943;51.410;7.564;2022-12-18T10:23:53;3.15;;;2.28;;
46222;SDS011;31943;51.410;7.564;2022-12-18T10:26:25;3.70;;;2.25;;
46222;SDS011;31943;51.410;7.564;2022-12-18T10:28:53;4.70;;;2.47;;
46222;SDS011;31943;51.410;7.564;2022-12-18T10:31:19;2.80;;;1.80;;
46222;SDS011;31943;51.410;7.564;2022-12-18T10:33:47;4.90;;;2.40;;
46222;SDS011;31943;51.410;7.564;2022-12-18T10:36:13;4.00;;;2.20;;
46222;SDS011;31943;51.410;7.564;2022-12-18T10:38:39;5.90;;;3.00;;
46222;SDS011;31943;51.410;7.564;2022-12-18T10:41:06;5.35;;;3.85;;
46222;SDS011;31943;51.410;7.564;2022-12-18T10:43:48;6.18;;;4.20;;
46222;SDS011;31943;51.410;7.564;2022-12-18T10:46:35;3.60;;;2.40;;
46222;SDS011;31943;51.410;7.564;2022-12-18T10:49:00;7.30;;;2.28;;
46222;SDS011;31943;51.410;7.564;2022-12-18T10:51:27;3.63;;;1.70;;
46222;SDS011;31943;51.410;7.564;2022-12-18T10:53:55;4.47;;;2.40;;
46222;SDS011;31943;51.410;7.564;2022-12-18T10:56:23;3.05;;;2.00;;
46222;SDS011;31943;51.410;7.564;2022-12-18T10:58:55;3.55;;;2.22;;
46222;SDS011;31943;51.410;7.564;2022-12-18T11:01:22;3.78;;;2.28;;
46222;SDS011;31943;51.410;7.564;2022-12-18T11:03:58;3.42;;;1.83;;
46222;SDS011;31943;51.410;7.564;2022-12-18T11:06:25;3.42;;;2.10;;
46222;SDS011;31943;51.410;7.564;2022-12-18T11:08:57;3.97;;;1.73;;
46222;SDS011;31943;51.410;7.564;2022-12-18T11:11:23;2.90;;;1.75;;
46222;SDS011;31943;51.410;7.564;2022-12-18T11:13:52;2.42;;;1.70;;
46222;SDS011;31943;51.410;7.564;2022-12-18T11:16:23;3.53;;;1.90;;
46222;SDS011;31943;51.410;7.564;2022-12-18T11:18:49;4.10;;;1.83;;
46222;SDS011;31943;51.410;7.564;2022-12-18T11:21:18;4.65;;;2.22;;
46222;SDS011;31943;51.410;7.564;2022-12-18T11:23:46;3.20;;;2.08;;
46222;SDS011;31943;51.410;7.564;2022-12-18T11:26:14;3.33;;;2.00;;
46222;SDS011;31943;51.410;7.564;2022-12-18T11:28:46;3.53;;;2.08;;
46222;SDS011;31943;51.410;7.564;2022-12-18T11:31:19;2.85;;;1.95;;
46222;SDS011;31943;51.410;7.564;2022-12-18T11:33:50;3.30;;;2.00;;
46222;SDS011;31943;51.410;7.564;2022-12-18T11:36:31;4.82;;;2.22;;
46222;SDS011;31943;51.410;7.564;2022-12-18T11:39:01;3.03;;;1.95;;
46222;SDS011;31943;51.410;7.564;2022-12-18T11:41:35;2.92;;;1.73;;
46222;SDS011;31943;51.410;7.564;2022-12-18T11:44:06;3.10;;;1.88;;
46222;SDS011;31943;51.410;7.564;2022-12-18T11:46:36;3.53;;;2.22;;
46222;SDS011;31943;51.410;7.564;2022-12-18T11:49:10;3.38;;;1.70;;
46222;SDS011;31943;51.410;7.564;2022-12-18T11:51:43;3.15;;;1.90;;
46222;SDS011;31943;51.410;7.564;2022-12-18T11:54:14;3.67;;;2.05;;
46222;SDS011;31943;51.410;7.564;2022-12-18T11:56:42;3.70;;;2.05;;
46222;SDS011;31943;51.410;7.564;2022-12-18T11:59:14;3.25;;;2.20;;
46222;SDS011;31943;51.410;7.564;2022-12-18T12:01:49;2.95;;;1.73;;
46222;SDS011;31943;51.410;7.564;2022-12-18T12:07:12;3.22;;;1.80;;
46222;SDS011;31943;51.410;7.564;2022-12-18T12:09:46;4.22;;;2.17;;
46222;SDS011;31943;51.410;7.564;2022-12-18T12:12:24;2.30;;;1.60;;
46222;SDS011;31943;51.410;7.564;2022-12-18T12:15:02;3.30;;;2.30;;
46222;SDS011;31943;51.410;7.564;2022-12-18T12:17:38;3.25;;;1.83;;
46222;SDS011;31943;51.410;7.564;2022-12-18T12:20:12;3.13;;;1.75;;
46222;SDS011;31943;51.410;7.564;2022-12-18T12:22:48;3.80;;;1.95;;
46222;SDS011;31943;51.410;7.564;2022-12-18T12:25:31;4.55;;;2.13;;
46222;SDS011;31943;51.410;7.564;2022-12-18T12:28:09;4.00;;;2.13;;
46222;SDS011;31943;51.410;7.564;2022-12-18T12:30:47;3.17;;;2.30;;
46222;SDS011;31943;51.410;7.564;2022-12-18T12:33:28;4.45;;;1.95;;
46222;SDS011;31943;51.410;7.564;2022-12-18T12:36:06;6.43;;;2.20;;
46222;SDS011;31943;51.410;7.564;2022-12-18T12:38:42;3.25;;;2.25;;
46222;SDS011;31943;51.410;7.564;2022-12-18T12:41:11;3.90;;;2.30;;
46222;SDS011;31943;51.410;7.564;2022-12-18T12:43:41;3.30;;;2.25;;
46222;SDS011;31943;51.410;7.564;2022-12-18T12:46:10;6.70;;;2.00;;
46222;SDS011;31943;51.410;7.564;2022-12-18T12:48:38;4.43;;;1.95;;
46222;SDS011;31943;51.410;7.564;2022-12-18T12:51:10;4.15;;;2.33;;
46222;SDS011;31943;51.410;7.564;2022-12-18T12:53:42;17.58;;;10.35;;
46222;SDS011;31943;51.410;7.564;2022-12-18T12:56:11;9.77;;;5.28;;
46222;SDS011;31943;51.410;7.564;2022-12-18T12:58:43;4.38;;;2.72;;
46222;SDS011;31943;51.410;7.564;2022-12-18T13:01:17;3.55;;;2.58;;
46222;SDS011;31943;51.410;7.564;2022-12-18T13:03:54;3.35;;;2.40;;
46222;SDS011;31943;51.410;7.564;2022-12-18T13:06:30;3.30;;;2.20;;
46222;SDS011;31943;51.410;7.564;2022-12-18T13:09:04;2.65;;;1.90;;
46222;SDS011;31943;51.410;7.564;2022-12-18T13:11:32;4.45;;;2.58;;
46222;SDS011;31943;51.410;7.564;2022-12-18T13:14:01;5.35;;;2.13;;
46222;SDS011;31943;51.410;7.564;2022-12-18T13:16:26;3.33;;;2.20;;
46222;SDS011;31943;51.410;7.564;2022-12-18T13:18:52;3.67;;;2.70;;
46222;SDS011;31943;51.410;7.564;2022-12-18T13:21:21;6.28;;;3.75;;
46222;SDS011;31943;51.410;7.564;2022-12-18T13:23:49;9.23;;;3.50;;
46222;SDS011;31943;51.410;7.564;2022-12-18T13:26:33;6.30;;;3.00;;
46222;SDS011;31943;51.410;7.564;2022-12-18T13:28:58;8.88;;;3.75;;
46222;SDS011;31943;51.410;7.564;2022-12-18T13:34:30;8.20;;;4.43;;
46222;SDS011;31943;51.410;7.564;2022-12-18T13:36:56;12.77;;;7.45;;
46222;SDS011;31943;51.410;7.564;2022-12-18T13:39:42;11.05;;;5.80;;
46222;SDS011;31943;51.410;7.564;2022-12-18T13:48:14;8.55;;;6.25;;
46222;SDS011;31943;51.410;7.564;2022-12-18T13:50:41;16.85;;;7.63;;
46222;SDS011;31943;51.410;7.564;2022-12-18T13:53:12;18.42;;;9.63;;
46222;SDS011;31943;51.410;7.564;2022-12-18T13:55:52;16.85;;;8.10;;
46222;SDS011;31943;51.410;7.564;2022-12-18T13:58:18;15.55;;;8.57;;
46222;SDS011;31943;51.410;7.564;2022-12-18T14:00:45;13.15;;;7.95;;
46222;SDS011;31943;51.410;7.564;2022-12-18T14:03:18;15.00;;;7.68;;
46222;SDS011;31943;51.410;7.564;2022-12-18T14:05:45;16.08;;;9.20;;
46222;SDS011;31943;51.410;7.564;2022-12-18T14:08:19;13.95;;;10.48;;
46222;SDS011;31943;51.410;7.564;2022-12-18T14:10:46;14.00;;;8.73;;
46222;SDS011;31943;51.410;7.564;2022-12-18T14:13:15;15.88;;;9.57;;
46222;SDS011;31943;51.410;7.564;2022-12-18T14:15:46;13.43;;;8.57;;
46222;SDS011;31943;51.410;7.564;2022-12-18T14:18:17;19.70;;;9.13;;
46222;SDS011;31943;51.410;7.564;2022-12-18T14:20:47;18.95;;;7.85;;
46222;SDS011;31943;51.410;7.564;2022-12-18T14:23:27;18.67;;;6.95;;
46222;SDS011;31943;51.410;7.564;2022-12-18T14:25:54;13.38;;;7.10;;
46222;SDS011;31943;51.410;7.564;2022-12-18T14:28:20;12.73;;;7.80;;
46222;SDS011;31943;51.410;7.564;2022-12-18T14:30:48;14.55;;;10.60;;
46222;SDS011;31943;51.410;7.564;2022-12-18T14:33:14;18.02;;;11.15;;
46222;SDS011;31943;51.410;7.564;2022-12-18T14:35:42;18.73;;;10.65;;
46222;SDS011;31943;51.410;7.564;2022-12-18T14:38:19;22.23;;;14.30;;
46222;SDS011;31943;51.410;7.564;2022-12-18T14:40:51;18.47;;;10.20;;
46222;SDS011;31943;51.410;7.564;2022-12-18T14:43:17;20.40;;;11.52;;
46222;SDS011;31943;51.410;7.564;2022-12-18T14:45:43;22.38;;;12.45;;
46222;SDS011;31943;51.410;7.564;2022-12-18T14:48:14;13.25;;;10.10;;
46222;SDS011;31943;51.410;7.564;2022-12-18T14:50:41;24.85;;;13.27;;
46222;SDS011;31943;51.410;7.564;2022-12-18T14:53:17;13.38;;;9.55;;
46222;SDS011;31943;51.410;7.564;2022-12-18T14:55:45;9.20;;;5.80;;
46222;SDS011;31943;51.410;7.564;2022-12-18T14:58:13;9.48;;;6.28;;
46222;SDS011;31943;51.410;7.564;2022-12-18T15:00:40;9.02;;;6.38;;
46222;SDS011;31943;51.410;7.564;2022-12-18T15:03:07;10.02;;;6.28;;
46222;SDS011;31943;51.410;7.564;2022-12-18T15:05:35;9.93;;;6.70;;
46222;SDS011;31943;51.410;7.564;2022-12-18T15:08:01;10.07;;;6.55;;